<?xml version="1.0" encoding="UTF-8" standalone="no" ?>
<gpx xmlns="http://www.topografix.com/GPX/1/1" xmlns:xsi="http://www.w3.org/2001/XMLSchema-instance" xsi:schemaLocation="http://www.topografix.com/GPX/1/1 http://www.topografix.com/GPX/1/1/gpx.xsd" version="1.1" creator="VisuGPX - https://www.visugpx.com">
  <metadata>
    <name>E1 : Bourg d'Oisans - Besse</name>
  </metadata>
  <trk>
    <name><![CDATA[E1 : Bourg d'Oisans - Besse]]></name>
    <trkseg>
      <trkpt lat="45.05476" lon="6.03192">
        <ele>719</ele>
        <time>2020-10-27T09:14:36+01:00</time>
      </trkpt>
      <trkpt lat="45.05515" lon="6.03286">
        <ele>718</ele>
        <time>2020-10-27T09:14:41+01:00</time>
      </trkpt>
      <trkpt lat="45.05821" lon="6.03629">
        <ele>715</ele>
        <time>2020-10-27T09:14:46+01:00</time>
      </trkpt>
      <trkpt lat="45.05915" lon="6.03805">
        <ele>716</ele>
        <time>2020-10-27T09:14:51+01:00</time>
      </trkpt>
      <trkpt lat="45.06064" lon="6.03767">
        <ele>717</ele>
        <time>2020-10-27T09:14:56+01:00</time>
      </trkpt>
      <trkpt lat="45.062" lon="6.03719">
        <ele>717</ele>
        <time>2020-10-27T09:15:01+01:00</time>
      </trkpt>
      <trkpt lat="45.06264" lon="6.03698">
        <ele>718</ele>
        <time>2020-10-27T09:15:06+01:00</time>
      </trkpt>
      <trkpt lat="45.06297" lon="6.03724">
        <ele>718</ele>
        <time>2020-10-27T09:15:11+01:00</time>
      </trkpt>
      <trkpt lat="45.06428" lon="6.03895">
        <ele>721</ele>
        <time>2020-10-27T09:15:16+01:00</time>
      </trkpt>
      <trkpt lat="45.06394" lon="6.03994">
        <ele>723</ele>
        <time>2020-10-27T09:15:21+01:00</time>
      </trkpt>
      <trkpt lat="45.064" lon="6.0405">
        <ele>725</ele>
        <time>2020-10-27T09:15:26+01:00</time>
      </trkpt>
      <trkpt lat="45.06385" lon="6.04116">
        <ele>731</ele>
        <time>2020-10-27T09:15:31+01:00</time>
      </trkpt>
      <trkpt lat="45.06423" lon="6.04127">
        <ele>741</ele>
        <time>2020-10-27T09:15:36+01:00</time>
      </trkpt>
      <trkpt lat="45.06428" lon="6.04196">
        <ele>783</ele>
        <time>2020-10-27T09:15:41+01:00</time>
      </trkpt>
      <trkpt lat="45.06359" lon="6.04241">
        <ele>812</ele>
        <time>2020-10-27T09:15:46+01:00</time>
      </trkpt>
      <trkpt lat="45.06394" lon="6.04282">
        <ele>846</ele>
        <time>2020-10-27T09:15:51+01:00</time>
      </trkpt>
      <trkpt lat="45.0644" lon="6.04292">
        <ele>849</ele>
        <time>2020-10-27T09:15:56+01:00</time>
      </trkpt>
      <trkpt lat="45.06352" lon="6.04342">
        <ele>890</ele>
        <time>2020-10-27T09:16:01+01:00</time>
      </trkpt>
      <trkpt lat="45.06331" lon="6.0438">
        <ele>919</ele>
        <time>2020-10-27T09:16:06+01:00</time>
      </trkpt>
      <trkpt lat="45.06361" lon="6.04428">
        <ele>937</ele>
        <time>2020-10-27T09:16:11+01:00</time>
      </trkpt>
      <trkpt lat="45.06381" lon="6.04522">
        <ele>954</ele>
        <time>2020-10-27T09:16:16+01:00</time>
      </trkpt>
      <trkpt lat="45.064" lon="6.04614">
        <ele>970</ele>
        <time>2020-10-27T09:16:21+01:00</time>
      </trkpt>
      <trkpt lat="45.06447" lon="6.04666">
        <ele>974</ele>
        <time>2020-10-27T09:16:26+01:00</time>
      </trkpt>
      <trkpt lat="45.06519" lon="6.04691">
        <ele>982</ele>
        <time>2020-10-27T09:16:31+01:00</time>
      </trkpt>
      <trkpt lat="45.06566" lon="6.04698">
        <ele>987</ele>
        <time>2020-10-27T09:16:36+01:00</time>
      </trkpt>
      <trkpt lat="45.06638" lon="6.04764">
        <ele>993</ele>
        <time>2020-10-27T09:16:41+01:00</time>
      </trkpt>
      <trkpt lat="45.06656" lon="6.04807">
        <ele>996</ele>
        <time>2020-10-27T09:16:46+01:00</time>
      </trkpt>
      <trkpt lat="45.06691" lon="6.04848">
        <ele>997</ele>
        <time>2020-10-27T09:16:51+01:00</time>
      </trkpt>
      <trkpt lat="45.06661" lon="6.0488">
        <ele>1010</ele>
        <time>2020-10-27T09:16:56+01:00</time>
      </trkpt>
      <trkpt lat="45.06681" lon="6.04979">
        <ele>1027</ele>
        <time>2020-10-27T09:17:01+01:00</time>
      </trkpt>
      <trkpt lat="45.0671" lon="6.0511">
        <ele>1044</ele>
        <time>2020-10-27T09:17:06+01:00</time>
      </trkpt>
      <trkpt lat="45.06699" lon="6.05288">
        <ele>1087</ele>
        <time>2020-10-27T09:17:11+01:00</time>
      </trkpt>
      <trkpt lat="45.06675" lon="6.05305">
        <ele>1109</ele>
        <time>2020-10-27T09:17:16+01:00</time>
      </trkpt>
      <trkpt lat="45.06653" lon="6.05243">
        <ele>1112</ele>
        <time>2020-10-27T09:17:21+01:00</time>
      </trkpt>
      <trkpt lat="45.06596" lon="6.05166">
        <ele>1125</ele>
        <time>2020-10-27T09:17:26+01:00</time>
      </trkpt>
      <trkpt lat="45.06556" lon="6.0514">
        <ele>1136</ele>
        <time>2020-10-27T09:17:31+01:00</time>
      </trkpt>
      <trkpt lat="45.06532" lon="6.05097">
        <ele>1140</ele>
        <time>2020-10-27T09:17:36+01:00</time>
      </trkpt>
      <trkpt lat="45.06519" lon="6.05046">
        <ele>1137</ele>
        <time>2020-10-27T09:17:41+01:00</time>
      </trkpt>
      <trkpt lat="45.06462" lon="6.05028">
        <ele>1144</ele>
        <time>2020-10-27T09:17:46+01:00</time>
      </trkpt>
      <trkpt lat="45.06416" lon="6.05039">
        <ele>1156</ele>
        <time>2020-10-27T09:17:51+01:00</time>
      </trkpt>
      <trkpt lat="45.06372" lon="6.05003">
        <ele>1166</ele>
        <time>2020-10-27T09:17:56+01:00</time>
      </trkpt>
      <trkpt lat="45.06328" lon="6.04977">
        <ele>1176</ele>
        <time>2020-10-27T09:18:01+01:00</time>
      </trkpt>
      <trkpt lat="45.06273" lon="6.04994">
        <ele>1197</ele>
        <time>2020-10-27T09:18:06+01:00</time>
      </trkpt>
      <trkpt lat="45.06281" lon="6.0502">
        <ele>1207</ele>
        <time>2020-10-27T09:18:11+01:00</time>
      </trkpt>
      <trkpt lat="45.06267" lon="6.05043">
        <ele>1212</ele>
        <time>2020-10-27T09:18:16+01:00</time>
      </trkpt>
      <trkpt lat="45.06284" lon="6.05056">
        <ele>1220</ele>
        <time>2020-10-27T09:18:21+01:00</time>
      </trkpt>
      <trkpt lat="45.06311" lon="6.05052">
        <ele>1218</ele>
        <time>2020-10-27T09:18:26+01:00</time>
      </trkpt>
      <trkpt lat="45.06293" lon="6.05069">
        <ele>1226</ele>
        <time>2020-10-27T09:18:31+01:00</time>
      </trkpt>
      <trkpt lat="45.06311" lon="6.0511">
        <ele>1243</ele>
        <time>2020-10-27T09:18:36+01:00</time>
      </trkpt>
      <trkpt lat="45.06315" lon="6.05159">
        <ele>1259</ele>
        <time>2020-10-27T09:18:41+01:00</time>
      </trkpt>
      <trkpt lat="45.06328" lon="6.05217">
        <ele>1283</ele>
        <time>2020-10-27T09:18:46+01:00</time>
      </trkpt>
      <trkpt lat="45.06387" lon="6.05279">
        <ele>1296</ele>
        <time>2020-10-27T09:18:51+01:00</time>
      </trkpt>
      <trkpt lat="45.0642" lon="6.05292">
        <ele>1299</ele>
        <time>2020-10-27T09:18:56+01:00</time>
      </trkpt>
      <trkpt lat="45.06437" lon="6.05312">
        <ele>1303</ele>
        <time>2020-10-27T09:19:01+01:00</time>
      </trkpt>
      <trkpt lat="45.06399" lon="6.05466">
        <ele>1338</ele>
        <time>2020-10-27T09:19:06+01:00</time>
      </trkpt>
      <trkpt lat="45.06416" lon="6.05503">
        <ele>1335</ele>
        <time>2020-10-27T09:19:11+01:00</time>
      </trkpt>
      <trkpt lat="45.06438" lon="6.05554">
        <ele>1335</ele>
        <time>2020-10-27T09:19:16+01:00</time>
      </trkpt>
      <trkpt lat="45.06435" lon="6.05603">
        <ele>1340</ele>
        <time>2020-10-27T09:19:21+01:00</time>
      </trkpt>
      <trkpt lat="45.06412" lon="6.05644">
        <ele>1362</ele>
        <time>2020-10-27T09:19:26+01:00</time>
      </trkpt>
      <trkpt lat="45.06437" lon="6.05685">
        <ele>1363</ele>
        <time>2020-10-27T09:19:31+01:00</time>
      </trkpt>
      <trkpt lat="45.0647" lon="6.05709">
        <ele>1351</ele>
        <time>2020-10-27T09:19:36+01:00</time>
      </trkpt>
      <trkpt lat="45.06449" lon="6.05816">
        <ele>1388</ele>
        <time>2020-10-27T09:19:41+01:00</time>
      </trkpt>
      <trkpt lat="45.0647" lon="6.05951">
        <ele>1390</ele>
        <time>2020-10-27T09:19:46+01:00</time>
      </trkpt>
      <trkpt lat="45.06502" lon="6.0602">
        <ele>1384</ele>
        <time>2020-10-27T09:19:51+01:00</time>
      </trkpt>
      <trkpt lat="45.0649" lon="6.06039">
        <ele>1389</ele>
        <time>2020-10-27T09:19:56+01:00</time>
      </trkpt>
      <trkpt lat="45.06455" lon="6.05977">
        <ele>1399</ele>
        <time>2020-10-27T09:20:01+01:00</time>
      </trkpt>
      <trkpt lat="45.06473" lon="6.06065">
        <ele>1395</ele>
        <time>2020-10-27T09:20:06+01:00</time>
      </trkpt>
      <trkpt lat="45.06461" lon="6.06131">
        <ele>1408</ele>
        <time>2020-10-27T09:20:11+01:00</time>
      </trkpt>
      <trkpt lat="45.06508" lon="6.06125">
        <ele>1398</ele>
        <time>2020-10-27T09:20:16+01:00</time>
      </trkpt>
      <trkpt lat="45.06575" lon="6.06133">
        <ele>1406</ele>
        <time>2020-10-27T09:20:21+01:00</time>
      </trkpt>
      <trkpt lat="45.06647" lon="6.06121">
        <ele>1414</ele>
        <time>2020-10-27T09:20:26+01:00</time>
      </trkpt>
      <trkpt lat="45.06682" lon="6.06067">
        <ele>1414</ele>
        <time>2020-10-27T09:20:31+01:00</time>
      </trkpt>
      <trkpt lat="45.06796" lon="6.06005">
        <ele>1432</ele>
        <time>2020-10-27T09:20:36+01:00</time>
      </trkpt>
      <trkpt lat="45.06826" lon="6.06073">
        <ele>1429</ele>
        <time>2020-10-27T09:20:41+01:00</time>
      </trkpt>
      <trkpt lat="45.06779" lon="6.06131">
        <ele>1431</ele>
        <time>2020-10-27T09:20:46+01:00</time>
      </trkpt>
      <trkpt lat="45.06764" lon="6.06213">
        <ele>1438</ele>
        <time>2020-10-27T09:20:51+01:00</time>
      </trkpt>
      <trkpt lat="45.06781" lon="6.06262">
        <ele>1441</ele>
        <time>2020-10-27T09:20:56+01:00</time>
      </trkpt>
      <trkpt lat="45.06773" lon="6.06378">
        <ele>1452</ele>
        <time>2020-10-27T09:21:01+01:00</time>
      </trkpt>
      <trkpt lat="45.06807" lon="6.06389">
        <ele>1451</ele>
        <time>2020-10-27T09:21:06+01:00</time>
      </trkpt>
      <trkpt lat="45.06847" lon="6.06382">
        <ele>1455</ele>
        <time>2020-10-27T09:21:11+01:00</time>
      </trkpt>
      <trkpt lat="45.06908" lon="6.06361">
        <ele>1459</ele>
        <time>2020-10-27T09:21:16+01:00</time>
      </trkpt>
      <trkpt lat="45.06975" lon="6.06412">
        <ele>1466</ele>
        <time>2020-10-27T09:21:21+01:00</time>
      </trkpt>
      <trkpt lat="45.07137" lon="6.06445">
        <ele>1477</ele>
        <time>2020-10-27T09:21:26+01:00</time>
      </trkpt>
      <trkpt lat="45.07251" lon="6.06421">
        <ele>1476</ele>
        <time>2020-10-27T09:21:31+01:00</time>
      </trkpt>
      <trkpt lat="45.07301" lon="6.06442">
        <ele>1482</ele>
        <time>2020-10-27T09:21:36+01:00</time>
      </trkpt>
      <trkpt lat="45.07385" lon="6.06391">
        <ele>1480</ele>
        <time>2020-10-27T09:21:41+01:00</time>
      </trkpt>
      <trkpt lat="45.07432" lon="6.06432">
        <ele>1492</ele>
        <time>2020-10-27T09:21:46+01:00</time>
      </trkpt>
      <trkpt lat="45.07466" lon="6.06391">
        <ele>1496</ele>
        <time>2020-10-27T09:21:51+01:00</time>
      </trkpt>
      <trkpt lat="45.07485" lon="6.06354">
        <ele>1497</ele>
        <time>2020-10-27T09:21:56+01:00</time>
      </trkpt>
      <trkpt lat="45.07526" lon="6.06331">
        <ele>1502</ele>
        <time>2020-10-27T09:22:01+01:00</time>
      </trkpt>
      <trkpt lat="45.07582" lon="6.06277">
        <ele>1495</ele>
        <time>2020-10-27T09:22:06+01:00</time>
      </trkpt>
      <trkpt lat="45.07684" lon="6.06292">
        <ele>1505</ele>
        <time>2020-10-27T09:22:11+01:00</time>
      </trkpt>
      <trkpt lat="45.0777" lon="6.06344">
        <ele>1512</ele>
        <time>2020-10-27T09:22:16+01:00</time>
      </trkpt>
      <trkpt lat="45.07878" lon="6.06425">
        <ele>1518</ele>
        <time>2020-10-27T09:22:21+01:00</time>
      </trkpt>
      <trkpt lat="45.07919" lon="6.0643">
        <ele>1511</ele>
        <time>2020-10-27T09:22:26+01:00</time>
      </trkpt>
      <trkpt lat="45.07922" lon="6.06505">
        <ele>1519</ele>
        <time>2020-10-27T09:22:31+01:00</time>
      </trkpt>
      <trkpt lat="45.07958" lon="6.06575">
        <ele>1501</ele>
        <time>2020-10-27T09:22:36+01:00</time>
      </trkpt>
      <trkpt lat="45.07982" lon="6.06655">
        <ele>1504</ele>
        <time>2020-10-27T09:22:41+01:00</time>
      </trkpt>
      <trkpt lat="45.08025" lon="6.067">
        <ele>1463</ele>
        <time>2020-10-27T09:22:46+01:00</time>
      </trkpt>
      <trkpt lat="45.0801" lon="6.06724">
        <ele>1483</ele>
        <time>2020-10-27T09:22:51+01:00</time>
      </trkpt>
      <trkpt lat="45.08037" lon="6.06818">
        <ele>1462</ele>
        <time>2020-10-27T09:22:56+01:00</time>
      </trkpt>
      <trkpt lat="45.08066" lon="6.06846">
        <ele>1440</ele>
        <time>2020-10-27T09:23:01+01:00</time>
      </trkpt>
      <trkpt lat="45.08093" lon="6.06897">
        <ele>1428</ele>
        <time>2020-10-27T09:23:06+01:00</time>
      </trkpt>
      <trkpt lat="45.08129" lon="6.06934">
        <ele>1423</ele>
        <time>2020-10-27T09:23:11+01:00</time>
      </trkpt>
      <trkpt lat="45.08126" lon="6.0705">
        <ele>1430</ele>
        <time>2020-10-27T09:23:16+01:00</time>
      </trkpt>
      <trkpt lat="45.08151" lon="6.07144">
        <ele>1441</ele>
        <time>2020-10-27T09:23:21+01:00</time>
      </trkpt>
      <trkpt lat="45.08182" lon="6.07264">
        <ele>1452</ele>
        <time>2020-10-27T09:23:26+01:00</time>
      </trkpt>
      <trkpt lat="45.0821" lon="6.07311">
        <ele>1462</ele>
        <time>2020-10-27T09:23:31+01:00</time>
      </trkpt>
      <trkpt lat="45.08223" lon="6.07406">
        <ele>1468</ele>
        <time>2020-10-27T09:23:36+01:00</time>
      </trkpt>
      <trkpt lat="45.08198" lon="6.07547">
        <ele>1475</ele>
        <time>2020-10-27T09:23:41+01:00</time>
      </trkpt>
      <trkpt lat="45.08193" lon="6.07696">
        <ele>1486</ele>
        <time>2020-10-27T09:23:46+01:00</time>
      </trkpt>
      <trkpt lat="45.08195" lon="6.07762">
        <ele>1491</ele>
        <time>2020-10-27T09:23:51+01:00</time>
      </trkpt>
      <trkpt lat="45.08184" lon="6.07837">
        <ele>1494</ele>
        <time>2020-10-27T09:23:56+01:00</time>
      </trkpt>
      <trkpt lat="45.0819" lon="6.07983">
        <ele>1506</ele>
        <time>2020-10-27T09:24:01+01:00</time>
      </trkpt>
      <trkpt lat="45.08158" lon="6.08174">
        <ele>1513</ele>
        <time>2020-10-27T09:24:06+01:00</time>
      </trkpt>
      <trkpt lat="45.08152" lon="6.08303">
        <ele>1523</ele>
        <time>2020-10-27T09:24:11+01:00</time>
      </trkpt>
      <trkpt lat="45.08131" lon="6.08348">
        <ele>1522</ele>
        <time>2020-10-27T09:24:16+01:00</time>
      </trkpt>
      <trkpt lat="45.08152" lon="6.0841">
        <ele>1528</ele>
        <time>2020-10-27T09:24:21+01:00</time>
      </trkpt>
      <trkpt lat="45.08145" lon="6.08477">
        <ele>1530</ele>
        <time>2020-10-27T09:24:26+01:00</time>
      </trkpt>
      <trkpt lat="45.08128" lon="6.08582">
        <ele>1536</ele>
        <time>2020-10-27T09:24:31+01:00</time>
      </trkpt>
      <trkpt lat="45.08132" lon="6.087">
        <ele>1546</ele>
        <time>2020-10-27T09:24:36+01:00</time>
      </trkpt>
      <trkpt lat="45.08087" lon="6.08775">
        <ele>1549</ele>
        <time>2020-10-27T09:24:41+01:00</time>
      </trkpt>
      <trkpt lat="45.08061" lon="6.08869">
        <ele>1553</ele>
        <time>2020-10-27T09:24:46+01:00</time>
      </trkpt>
      <trkpt lat="45.08063" lon="6.09037">
        <ele>1559</ele>
        <time>2020-10-27T09:24:51+01:00</time>
      </trkpt>
      <trkpt lat="45.0809" lon="6.0915">
        <ele>1567</ele>
        <time>2020-10-27T09:24:56+01:00</time>
      </trkpt>
      <trkpt lat="45.08075" lon="6.09245">
        <ele>1566</ele>
        <time>2020-10-27T09:25:01+01:00</time>
      </trkpt>
      <trkpt lat="45.08073" lon="6.09333">
        <ele>1569</ele>
        <time>2020-10-27T09:25:06+01:00</time>
      </trkpt>
      <trkpt lat="45.08119" lon="6.09477">
        <ele>1581</ele>
        <time>2020-10-27T09:25:11+01:00</time>
      </trkpt>
      <trkpt lat="45.08135" lon="6.09629">
        <ele>1589</ele>
        <time>2020-10-27T09:25:16+01:00</time>
      </trkpt>
      <trkpt lat="45.08155" lon="6.09734">
        <ele>1595</ele>
        <time>2020-10-27T09:25:21+01:00</time>
      </trkpt>
      <trkpt lat="45.08135" lon="6.09861">
        <ele>1599</ele>
        <time>2020-10-27T09:25:26+01:00</time>
      </trkpt>
      <trkpt lat="45.08116" lon="6.09929">
        <ele>1604</ele>
        <time>2020-10-27T09:25:31+01:00</time>
      </trkpt>
      <trkpt lat="45.08123" lon="6.09972">
        <ele>1611</ele>
        <time>2020-10-27T09:25:36+01:00</time>
      </trkpt>
      <trkpt lat="45.08095" lon="6.10086">
        <ele>1617</ele>
        <time>2020-10-27T09:25:41+01:00</time>
      </trkpt>
      <trkpt lat="45.08072" lon="6.10129">
        <ele>1622</ele>
        <time>2020-10-27T09:25:46+01:00</time>
      </trkpt>
      <trkpt lat="45.08045" lon="6.10253">
        <ele>1634</ele>
        <time>2020-10-27T09:25:51+01:00</time>
      </trkpt>
      <trkpt lat="45.07982" lon="6.10331">
        <ele>1641</ele>
        <time>2020-10-27T09:25:56+01:00</time>
      </trkpt>
      <trkpt lat="45.07957" lon="6.10395">
        <ele>1642</ele>
        <time>2020-10-27T09:26:01+01:00</time>
      </trkpt>
      <trkpt lat="45.07896" lon="6.10479">
        <ele>1647</ele>
        <time>2020-10-27T09:26:06+01:00</time>
      </trkpt>
      <trkpt lat="45.0784" lon="6.10629">
        <ele>1658</ele>
        <time>2020-10-27T09:26:11+01:00</time>
      </trkpt>
      <trkpt lat="45.07829" lon="6.10736">
        <ele>1668</ele>
        <time>2020-10-27T09:26:16+01:00</time>
      </trkpt>
      <trkpt lat="45.07882" lon="6.10831">
        <ele>1678</ele>
        <time>2020-10-27T09:26:21+01:00</time>
      </trkpt>
      <trkpt lat="45.07919" lon="6.10946">
        <ele>1687</ele>
        <time>2020-10-27T09:26:26+01:00</time>
      </trkpt>
      <trkpt lat="45.07901" lon="6.1114">
        <ele>1695</ele>
        <time>2020-10-27T09:26:31+01:00</time>
      </trkpt>
      <trkpt lat="45.0787" lon="6.11298">
        <ele>1701</ele>
        <time>2020-10-27T09:26:36+01:00</time>
      </trkpt>
      <trkpt lat="45.07852" lon="6.11464">
        <ele>1708</ele>
        <time>2020-10-27T09:26:41+01:00</time>
      </trkpt>
      <trkpt lat="45.07848" lon="6.11609">
        <ele>1714</ele>
        <time>2020-10-27T09:26:46+01:00</time>
      </trkpt>
      <trkpt lat="45.07819" lon="6.11734">
        <ele>1721</ele>
        <time>2020-10-27T09:26:51+01:00</time>
      </trkpt>
      <trkpt lat="45.07822" lon="6.11773">
        <ele>1725</ele>
        <time>2020-10-27T09:26:56+01:00</time>
      </trkpt>
      <trkpt lat="45.07808" lon="6.11828">
        <ele>1724</ele>
        <time>2020-10-27T09:27:01+01:00</time>
      </trkpt>
      <trkpt lat="45.07805" lon="6.11903">
        <ele>1727</ele>
        <time>2020-10-27T09:27:06+01:00</time>
      </trkpt>
      <trkpt lat="45.07819" lon="6.12045">
        <ele>1741</ele>
        <time>2020-10-27T09:27:11+01:00</time>
      </trkpt>
      <trkpt lat="45.07834" lon="6.12079">
        <ele>1742</ele>
        <time>2020-10-27T09:27:16+01:00</time>
      </trkpt>
      <trkpt lat="45.07869" lon="6.12352">
        <ele>1758</ele>
        <time>2020-10-27T09:27:21+01:00</time>
      </trkpt>
      <trkpt lat="45.07914" lon="6.12416">
        <ele>1761</ele>
        <time>2020-10-27T09:27:26+01:00</time>
      </trkpt>
      <trkpt lat="45.0792" lon="6.12485">
        <ele>1768</ele>
        <time>2020-10-27T09:27:31+01:00</time>
      </trkpt>
      <trkpt lat="45.07946" lon="6.12539">
        <ele>1771</ele>
        <time>2020-10-27T09:27:36+01:00</time>
      </trkpt>
      <trkpt lat="45.0801" lon="6.12633">
        <ele>1778</ele>
        <time>2020-10-27T09:27:41+01:00</time>
      </trkpt>
      <trkpt lat="45.08079" lon="6.12753">
        <ele>1790</ele>
        <time>2020-10-27T09:27:46+01:00</time>
      </trkpt>
      <trkpt lat="45.08129" lon="6.12867">
        <ele>1798</ele>
        <time>2020-10-27T09:27:51+01:00</time>
      </trkpt>
      <trkpt lat="45.08134" lon="6.12985">
        <ele>1808</ele>
        <time>2020-10-27T09:27:56+01:00</time>
      </trkpt>
      <trkpt lat="45.08079" lon="6.13066">
        <ele>1818</ele>
        <time>2020-10-27T09:28:01+01:00</time>
      </trkpt>
      <trkpt lat="45.08084" lon="6.13111">
        <ele>1819</ele>
        <time>2020-10-27T09:28:06+01:00</time>
      </trkpt>
      <trkpt lat="45.08117" lon="6.13159">
        <ele>1821</ele>
        <time>2020-10-27T09:28:11+01:00</time>
      </trkpt>
      <trkpt lat="45.08145" lon="6.13178">
        <ele>1826</ele>
        <time>2020-10-27T09:28:16+01:00</time>
      </trkpt>
      <trkpt lat="45.08072" lon="6.13221">
        <ele>1832</ele>
        <time>2020-10-27T09:28:21+01:00</time>
      </trkpt>
      <trkpt lat="45.08025" lon="6.13167">
        <ele>1833</ele>
        <time>2020-10-27T09:28:26+01:00</time>
      </trkpt>
      <trkpt lat="45.08008" lon="6.13088">
        <ele>1842</ele>
        <time>2020-10-27T09:28:31+01:00</time>
      </trkpt>
      <trkpt lat="45.07978" lon="6.13116">
        <ele>1850</ele>
        <time>2020-10-27T09:28:36+01:00</time>
      </trkpt>
      <trkpt lat="45.07964" lon="6.13225">
        <ele>1852</ele>
        <time>2020-10-27T09:28:41+01:00</time>
      </trkpt>
      <trkpt lat="45.07991" lon="6.13307">
        <ele>1858</ele>
        <time>2020-10-27T09:28:46+01:00</time>
      </trkpt>
      <trkpt lat="45.08069" lon="6.13569">
        <ele>1878</ele>
        <time>2020-10-27T09:28:51+01:00</time>
      </trkpt>
      <trkpt lat="45.08076" lon="6.13725">
        <ele>1891</ele>
        <time>2020-10-27T09:28:56+01:00</time>
      </trkpt>
      <trkpt lat="45.08107" lon="6.13931">
        <ele>1909</ele>
        <time>2020-10-27T09:29:01+01:00</time>
      </trkpt>
      <trkpt lat="45.08178" lon="6.14122">
        <ele>1923</ele>
        <time>2020-10-27T09:29:06+01:00</time>
      </trkpt>
      <trkpt lat="45.08195" lon="6.14214">
        <ele>1934</ele>
        <time>2020-10-27T09:29:11+01:00</time>
      </trkpt>
      <trkpt lat="45.08272" lon="6.14345">
        <ele>1947</ele>
        <time>2020-10-27T09:29:16+01:00</time>
      </trkpt>
      <trkpt lat="45.0836" lon="6.14476">
        <ele>1961</ele>
        <time>2020-10-27T09:29:21+01:00</time>
      </trkpt>
      <trkpt lat="45.0846" lon="6.14635">
        <ele>1974</ele>
        <time>2020-10-27T09:29:26+01:00</time>
      </trkpt>
      <trkpt lat="45.08523" lon="6.14725">
        <ele>1979</ele>
        <time>2020-10-27T09:29:31+01:00</time>
      </trkpt>
      <trkpt lat="45.08584" lon="6.14774">
        <ele>1984</ele>
        <time>2020-10-27T09:29:36+01:00</time>
      </trkpt>
      <trkpt lat="45.08651" lon="6.14869">
        <ele>1992</ele>
        <time>2020-10-27T09:29:41+01:00</time>
      </trkpt>
      <trkpt lat="45.08705" lon="6.14899">
        <ele>1999</ele>
        <time>2020-10-27T09:29:46+01:00</time>
      </trkpt>
      <trkpt lat="45.08879" lon="6.1494">
        <ele>1990</ele>
        <time>2020-10-27T09:29:51+01:00</time>
      </trkpt>
      <trkpt lat="45.08914" lon="6.14914">
        <ele>1989</ele>
        <time>2020-10-27T09:29:56+01:00</time>
      </trkpt>
      <trkpt lat="45.08964" lon="6.14925">
        <ele>1980</ele>
        <time>2020-10-27T09:30:01+01:00</time>
      </trkpt>
      <trkpt lat="45.09043" lon="6.1486">
        <ele>1984</ele>
        <time>2020-10-27T09:30:06+01:00</time>
      </trkpt>
      <trkpt lat="45.08994" lon="6.1494">
        <ele>1968</ele>
        <time>2020-10-27T09:30:11+01:00</time>
      </trkpt>
      <trkpt lat="45.0901" lon="6.14953">
        <ele>1960</ele>
        <time>2020-10-27T09:30:16+01:00</time>
      </trkpt>
      <trkpt lat="45.09032" lon="6.14918">
        <ele>1962</ele>
        <time>2020-10-27T09:30:21+01:00</time>
      </trkpt>
      <trkpt lat="45.09099" lon="6.14895">
        <ele>1959</ele>
        <time>2020-10-27T09:30:26+01:00</time>
      </trkpt>
      <trkpt lat="45.09135" lon="6.14927">
        <ele>1954</ele>
        <time>2020-10-27T09:30:31+01:00</time>
      </trkpt>
      <trkpt lat="45.09179" lon="6.14983">
        <ele>1945</ele>
        <time>2020-10-27T09:30:36+01:00</time>
      </trkpt>
      <trkpt lat="45.09125" lon="6.14993">
        <ele>1919</ele>
        <time>2020-10-27T09:30:41+01:00</time>
      </trkpt>
      <trkpt lat="45.09149" lon="6.15041">
        <ele>1910</ele>
        <time>2020-10-27T09:30:46+01:00</time>
      </trkpt>
      <trkpt lat="45.09161" lon="6.15109">
        <ele>1892</ele>
        <time>2020-10-27T09:30:51+01:00</time>
      </trkpt>
      <trkpt lat="45.09214" lon="6.15126">
        <ele>1891</ele>
        <time>2020-10-27T09:30:56+01:00</time>
      </trkpt>
      <trkpt lat="45.09182" lon="6.15174">
        <ele>1866</ele>
        <time>2020-10-27T09:31:01+01:00</time>
      </trkpt>
      <trkpt lat="45.09234" lon="6.15195">
        <ele>1857</ele>
        <time>2020-10-27T09:31:06+01:00</time>
      </trkpt>
      <trkpt lat="45.09229" lon="6.15292">
        <ele>1802</ele>
        <time>2020-10-27T09:31:11+01:00</time>
      </trkpt>
      <trkpt lat="45.09196" lon="6.15289">
        <ele>1797</ele>
        <time>2020-10-27T09:31:16+01:00</time>
      </trkpt>
      <trkpt lat="45.09234" lon="6.15319">
        <ele>1789</ele>
        <time>2020-10-27T09:31:21+01:00</time>
      </trkpt>
      <trkpt lat="45.09207" lon="6.15322">
        <ele>1783</ele>
        <time>2020-10-27T09:31:26+01:00</time>
      </trkpt>
      <trkpt lat="45.09229" lon="6.15345">
        <ele>1776</ele>
        <time>2020-10-27T09:31:31+01:00</time>
      </trkpt>
      <trkpt lat="45.09131" lon="6.15362">
        <ele>1749</ele>
        <time>2020-10-27T09:31:36+01:00</time>
      </trkpt>
      <trkpt lat="45.09226" lon="6.15474">
        <ele>1723</ele>
        <time>2020-10-27T09:31:41+01:00</time>
      </trkpt>
      <trkpt lat="45.09182" lon="6.1548">
        <ele>1711</ele>
        <time>2020-10-27T09:31:46+01:00</time>
      </trkpt>
      <trkpt lat="45.09247" lon="6.1556">
        <ele>1693</ele>
        <time>2020-10-27T09:31:51+01:00</time>
      </trkpt>
      <trkpt lat="45.09217" lon="6.15631">
        <ele>1666</ele>
        <time>2020-10-27T09:31:56+01:00</time>
      </trkpt>
      <trkpt lat="45.09176" lon="6.15708">
        <ele>1641</ele>
        <time>2020-10-27T09:32:01+01:00</time>
      </trkpt>
      <trkpt lat="45.09144" lon="6.15731">
        <ele>1634</ele>
        <time>2020-10-27T09:32:06+01:00</time>
      </trkpt>
      <trkpt lat="45.09166" lon="6.1583">
        <ele>1613</ele>
        <time>2020-10-27T09:32:11+01:00</time>
      </trkpt>
      <trkpt lat="45.0912" lon="6.1588">
        <ele>1608</ele>
        <time>2020-10-27T09:32:16+01:00</time>
      </trkpt>
      <trkpt lat="45.09034" lon="6.15824">
        <ele>1601</ele>
        <time>2020-10-27T09:32:21+01:00</time>
      </trkpt>
      <trkpt lat="45.09016" lon="6.1577">
        <ele>1604</ele>
        <time>2020-10-27T09:32:26+01:00</time>
      </trkpt>
      <trkpt lat="45.08926" lon="6.1577">
        <ele>1601</ele>
        <time>2020-10-27T09:32:31+01:00</time>
      </trkpt>
      <trkpt lat="45.08873" lon="6.15807">
        <ele>1591</ele>
        <time>2020-10-27T09:32:36+01:00</time>
      </trkpt>
      <trkpt lat="45.08761" lon="6.15789">
        <ele>1581</ele>
        <time>2020-10-27T09:32:41+01:00</time>
      </trkpt>
      <trkpt lat="45.08667" lon="6.1574">
        <ele>1575</ele>
        <time>2020-10-27T09:32:46+01:00</time>
      </trkpt>
      <trkpt lat="45.08467" lon="6.15716">
        <ele>1550</ele>
        <time>2020-10-27T09:32:51+01:00</time>
      </trkpt>
      <trkpt lat="45.08402" lon="6.15725">
        <ele>1538</ele>
        <time>2020-10-27T09:32:56+01:00</time>
      </trkpt>
      <trkpt lat="45.0827" lon="6.15695">
        <ele>1530</ele>
        <time>2020-10-27T09:33:01+01:00</time>
      </trkpt>
      <trkpt lat="45.07981" lon="6.15538">
        <ele>1519</ele>
        <time>2020-10-27T09:33:06+01:00</time>
      </trkpt>
      <trkpt lat="45.07919" lon="6.15547">
        <ele>1505</ele>
        <time>2020-10-27T09:33:11+01:00</time>
      </trkpt>
      <trkpt lat="45.07841" lon="6.1553">
        <ele>1487</ele>
        <time>2020-10-27T09:33:16+01:00</time>
      </trkpt>
      <trkpt lat="45.07784" lon="6.15523">
        <ele>1469</ele>
        <time>2020-10-27T09:33:21+01:00</time>
      </trkpt>
      <trkpt lat="45.07696" lon="6.15519">
        <ele>1454</ele>
        <time>2020-10-27T09:33:26+01:00</time>
      </trkpt>
      <trkpt lat="45.0764" lon="6.15498">
        <ele>1447</ele>
        <time>2020-10-27T09:33:31+01:00</time>
      </trkpt>
      <trkpt lat="45.07576" lon="6.15596">
        <ele>1423</ele>
        <time>2020-10-27T09:33:36+01:00</time>
      </trkpt>
      <trkpt lat="45.07545" lon="6.15618">
        <ele>1422</ele>
        <time>2020-10-27T09:33:41+01:00</time>
      </trkpt>
      <trkpt lat="45.07511" lon="6.15674">
        <ele>1417</ele>
        <time>2020-10-27T09:33:46+01:00</time>
      </trkpt>
      <trkpt lat="45.07526" lon="6.15738">
        <ele>1404</ele>
        <time>2020-10-27T09:33:51+01:00</time>
      </trkpt>
      <trkpt lat="45.07496" lon="6.15751">
        <ele>1402</ele>
        <time>2020-10-27T09:33:56+01:00</time>
      </trkpt>
      <trkpt lat="45.07396" lon="6.15684">
        <ele>1392</ele>
        <time>2020-10-27T09:34:01+01:00</time>
      </trkpt>
      <trkpt lat="45.07319" lon="6.15667">
        <ele>1380</ele>
        <time>2020-10-27T09:34:06+01:00</time>
      </trkpt>
      <trkpt lat="45.07251" lon="6.15633">
        <ele>1374</ele>
        <time>2020-10-27T09:34:11+01:00</time>
      </trkpt>
      <trkpt lat="45.07184" lon="6.15575">
        <ele>1365</ele>
        <time>2020-10-27T09:34:16+01:00</time>
      </trkpt>
      <trkpt lat="45.07155" lon="6.15534">
        <ele>1363</ele>
        <time>2020-10-27T09:34:21+01:00</time>
      </trkpt>
      <trkpt lat="45.07132" lon="6.15483">
        <ele>1365</ele>
        <time>2020-10-27T09:34:26+01:00</time>
      </trkpt>
      <trkpt lat="45.07088" lon="6.15508">
        <ele>1357</ele>
        <time>2020-10-27T09:34:31+01:00</time>
      </trkpt>
      <trkpt lat="45.07117" lon="6.15586">
        <ele>1347</ele>
        <time>2020-10-27T09:34:36+01:00</time>
      </trkpt>
      <trkpt lat="45.07038" lon="6.15562">
        <ele>1339</ele>
        <time>2020-10-27T09:34:41+01:00</time>
      </trkpt>
      <trkpt lat="45.06987" lon="6.15543">
        <ele>1330</ele>
        <time>2020-10-27T09:34:46+01:00</time>
      </trkpt>
      <trkpt lat="45.06975" lon="6.15613">
        <ele>1311</ele>
        <time>2020-10-27T09:34:51+01:00</time>
      </trkpt>
      <trkpt lat="45.06911" lon="6.15641">
        <ele>1286</ele>
        <time>2020-10-27T09:34:56+01:00</time>
      </trkpt>
      <trkpt lat="45.06919" lon="6.15697">
        <ele>1272</ele>
        <time>2020-10-27T09:35:01+01:00</time>
      </trkpt>
      <trkpt lat="45.06944" lon="6.15764">
        <ele>1296</ele>
        <time>2020-10-27T09:35:06+01:00</time>
      </trkpt>
      <trkpt lat="45.06991" lon="6.158">
        <ele>1310</ele>
        <time>2020-10-27T09:35:11+01:00</time>
      </trkpt>
      <trkpt lat="45.07017" lon="6.15858">
        <ele>1341</ele>
        <time>2020-10-27T09:35:16+01:00</time>
      </trkpt>
      <trkpt lat="45.07078" lon="6.1591">
        <ele>1358</ele>
        <time>2020-10-27T09:35:21+01:00</time>
      </trkpt>
      <trkpt lat="45.07072" lon="6.16004">
        <ele>1407</ele>
        <time>2020-10-27T09:35:26+01:00</time>
      </trkpt>
      <trkpt lat="45.07081" lon="6.1609">
        <ele>1428</ele>
        <time>2020-10-27T09:35:31+01:00</time>
      </trkpt>
      <trkpt lat="45.07108" lon="6.16201">
        <ele>1452</ele>
        <time>2020-10-27T09:35:36+01:00</time>
      </trkpt>
      <trkpt lat="45.07101" lon="6.16294">
        <ele>1458</ele>
        <time>2020-10-27T09:35:41+01:00</time>
      </trkpt>
      <trkpt lat="45.0712" lon="6.16371">
        <ele>1471</ele>
        <time>2020-10-27T09:35:46+01:00</time>
      </trkpt>
      <trkpt lat="45.07107" lon="6.16463">
        <ele>1473</ele>
        <time>2020-10-27T09:35:51+01:00</time>
      </trkpt>
      <trkpt lat="45.07144" lon="6.16545">
        <ele>1484</ele>
        <time>2020-10-27T09:35:56+01:00</time>
      </trkpt>
      <trkpt lat="45.07137" lon="6.16682">
        <ele>1500</ele>
        <time>2020-10-27T09:36:01+01:00</time>
      </trkpt>
      <trkpt lat="45.07113" lon="6.16806">
        <ele>1518</ele>
        <time>2020-10-27T09:36:06+01:00</time>
      </trkpt>
      <trkpt lat="45.07099" lon="6.16888">
        <ele>1528</ele>
        <time>2020-10-27T09:36:11+01:00</time>
      </trkpt>
      <trkpt lat="45.07155" lon="6.16993">
        <ele>1550</ele>
        <time>2020-10-27T09:36:16+01:00</time>
      </trkpt>
      <trkpt lat="45.07176" lon="6.17092">
        <ele>1549</ele>
        <time>2020-10-27T09:36:21+01:00</time>
      </trkpt>
      <trkpt lat="45.07187" lon="6.17067">
        <ele>1559.5</ele>
      </trkpt>
    </trkseg>
  </trk>
</gpx>